Terminal Aerodrome Forecast
Issued by NWS

Home | Current Version | Previous Version | Graphics & Text | Print | Product List | Glossary Off
Versions: 1 2 3 4 5 6 7 8 9 10 11 12 13 14 15

000
FTUS42 KMHX 241500 AAA
TAFISO
TAF AMD
KISO 241506Z 2415/2512 21007KT P6SM OVC008
     FM241900 20015G20KT P6SM SCT025 BKN050
     FM242300 19008KT 5SM BR OVC010
     FM250600 20005KT 3SM BR OVC005
      AMD LTD TO CLD VIS AND WIND=

USA.gov is the U.S. government's official web portal to all federal, state and local government web resources and services.